Jefferson City, MO (65109)

6:38 PM CDT en Octubre 31, 2014 (GMT -0500)
SW Blvd/Stadium Blvd | Change Station
CLOSE
Current Station
Estación meteorológica personal
Location: Jefferson City, MO
Altura: 745 ft
Estaciones meteorológicas cercanas
Aviso en curso: Freeze Warning

Alt 745 ft 38.57 °N, 92.20 °W | Updated 3 minutes ago

Despejado
Despejado
41.0 ° F
Sensación térmica 41 ° F
N
2.2
Viento Variable Viento desde ONO

Hoy
Alta -- | Baja -- ° F
--% Posibilidad de precipitaciones
Ayer
Alta -- | Baja -- ° F
Precip. -- pul
7:34 AM 6:10 PM
Cuarto creciente, 60% visible
Presión 30.37 pul
Visibilidad 10.0 Millas
Nubes Despejado
Vientos helados 41 ° F
Punto de rocío 20 ° F
Humedad 43%
Precipitaciones 0.00 pul
Espesor de la nieve No disponible.
UV 0 de una escala de 12
Polen 1.60 de una escala de 12
Calidad del aire No disponible.
Flu Activity No disponible.
METAR KJEF 312253Z 34013G18KT 10SM CLR 07/M10 A3039 RMK AO2 SLP282 T00721100

More Conditions Fewer Conditions

Presión 30.37 pul
Visibilidad 10.0 Millas
Nubes Despejado
Vientos helados 41 ° F
Punto de rocío 20 ° F
Humedad 43%
Precipitaciones 0.00 pul
Espesor de la nieve No disponible.
UV 0 de una escala de 12
Polen 1.60 de una escala de 12
Calidad del aire No disponible.
Flu Activity No disponible.
METAR KJEF 312253Z 34013G18KT 10SM CLR 07/M10 A3039 RMK AO2 SLP282 T00721100

More Conditions Fewer Conditions

10-Day Weather Forecast

Almanac

Astronomía

Oct. 31, 2014 Salida Puesta
Hora real
Crepúsculo civil
Crepúsculo náutico
Crepúsculo astronómico
Luna
Horas de luz
Horas de luz
Tomorrow will be .
, % of the Moon is Illuminated

Extremos de hoy

Máximos del estado Bajos del estado

Community

WunderPhotos

Upload Photos

1,766,784 ¡fotos cargadas!

WunderBlogs® & News

Nearby

Calidad del aire

  Calidad del aire Índice AQ Contaminante
Not available.

Grosos de nieve

Estación Profundido Altura

Actividad de terremotos

Ciudad Distance Mag. Tiempo y dato
Magnitud mínima muestra es 2,5.

Temperaturas de aguas costeras

Lugar Temperatura

Estaciones meteorológicas cercanas